100LL.CA
Aviation Fuel Pricing for Canadians
Please upgrade your browser - Tested with IE9, FireFox, Chrome, Safari

Fuel Airports Other Help
Prices Economy Info List METAR/TAF Kneeboard Help

Reference Airport: SAULT STE. MARIE, ON
N 46 29 06  W 084 30 34
Provinces to show:

CYAM SAULT STE. MARIE, ON
WEATHER
METARCYAM 131800Z 31015G22KT 20SM FEW025 FEW240 08/M01 A2989 RMK CU1CI1 CU TR CI TR SLP132
TAFTAF CYAM 131340Z 1314/1402 30015G25KT P6SM FEW050 BECMG 1318/1320 31012KT FM132100 32010KT P6SM SCT100 BKN180 FM132300 32008KT P6SM -RA OVC060 BECMG 1400/1402 VRB03KT RMK NXT FCST BY 132000Z
OTHER SITES

FlightAware

FltPlan

Google Maps

SkyVector
FUEL
FBO 100LL
member
100LL
public
JETA MOGAS
Executive Aviation Services (2022-05-06)3.0943.002
Canada Flight Supplement - CYAM
(opens in new tab/window)


Please Send Updates!

Desktop Version ]  [ Mobile Version ]  [ Disclaimer ]